Provisional Data: Long Run near Gaines, PA


Please select a monitoring station.
Please select start date.
Please select start date.

Toggle Unit: C/F Toggle Unit: C/F
Sample Time Temperature (C) Temperature (F) Specific Conductivity (mS/cm) pH   Turbidity (NTU+) DO (mg/L)
4/13/2022 12:00:00 AM 7.67 45.806 0.056 6.64 207.61 11.14
4/13/2022 12:15:00 AM 7.58 45.644 0.056 6.65 168.21 11.18
4/13/2022 12:30:00 AM 7.5 45.5 0.056 6.66 115.06 11.19
4/13/2022 12:45:00 AM 7.42 45.356 0.056 6.69 14.5 11.22
4/13/2022 1:00:00 AM 7.34 45.212 0.056 6.67 14.19 11.24
4/13/2022 1:15:00 AM 7.26 45.068 0.056 6.7 14.24 11.27
4/13/2022 1:30:00 AM 7.19 44.942 0.056 6.72 14.94 11.29
4/13/2022 1:45:00 AM 7.13 44.834 0.056 6.73 138.3 11.31
4/13/2022 2:00:00 AM 7.06 44.708 0.056 6.72 127.96 11.32
4/13/2022 2:15:00 AM 7.01 44.618 0.056 6.73 125.66 11.34
4/13/2022 2:30:00 AM 6.97 44.546 0.056 6.73 188.13 11.36
4/13/2022 2:45:00 AM 6.93 44.474 0.056 6.72 375.51 11.37
4/13/2022 3:00:00 AM 6.9 44.42 0.056 6.72 131.49 11.39
4/13/2022 3:15:00 AM 6.87 44.366 0.056 6.74 182.49 11.4
4/13/2022 3:30:00 AM 6.85 44.33 0.056 6.73 155.36 11.41
4/13/2022 3:45:00 AM 6.84 44.312 0.056 6.75 146.62 11.41
4/13/2022 4:00:00 AM 6.82 44.276 0.056 6.75 177.34 11.42
4/13/2022 4:15:00 AM 6.8 44.24 0.056 6.75 15.1 11.42
4/13/2022 4:30:00 AM 6.79 44.222 0.056 6.75 87.33 11.43
4/13/2022 4:45:00 AM 6.78 44.204 0.056 6.74 128.1 11.43
4/13/2022 5:00:00 AM 6.77 44.186 0.056 6.76 14.27 11.44
4/13/2022 5:15:00 AM 6.75 44.15 0.056 6.74 14.45 11.44
4/13/2022 5:30:00 AM 6.74 44.132 0.056 6.75 267.8 11.44
4/13/2022 5:45:00 AM 6.73 44.114 0.056 6.75 13.95 11.45
4/13/2022 6:00:00 AM 6.72 44.096 0.056 6.74 13.68 11.48
4/13/2022 6:15:00 AM 6.71 44.078 0.056 6.74 13.86 11.53
4/13/2022 6:30:00 AM 6.71 44.078 0.056 6.77 13.75 11.57
4/13/2022 6:45:00 AM 6.7 44.06 0.056 6.77 14.2 11.6
4/13/2022 7:00:00 AM 6.69 44.042 0.056 6.77 14.09 11.64
4/13/2022 7:15:00 AM 6.7 44.06 0.056 6.74 14.2 11.67
4/13/2022 7:30:00 AM 6.71 44.078 0.056 6.8 14.13 11.69
4/13/2022 7:45:00 AM 6.73 44.114 0.056 6.79 14.22 11.72
4/13/2022 8:00:00 AM 6.79 44.222 0.056 6.76 14.22 11.74
4/13/2022 8:15:00 AM 6.88 44.384 0.056 6.79 14.03 11.74
4/13/2022 8:30:00 AM 6.99 44.582 0.056 6.78 59.54 11.73
4/13/2022 8:45:00 AM 7.11 44.798 0.056 6.81 47.26 11.72
4/13/2022 9:00:00 AM 7.21 44.978 0.056 6.83 14.18 11.69
4/13/2022 9:15:00 AM 7.33 45.194 0.056 6.82 13.83 11.67
4/13/2022 9:30:00 AM 7.49 45.482 0.056 6.84 13.81 11.64
4/13/2022 9:45:00 AM 7.65 45.77 0.056 6.87 14.04 11.61
4/13/2022 10:00:00 AM 7.81 46.058 0.056 6.81 13.46 11.57
4/13/2022 10:15:00 AM 8.05 46.49 0.056 6.81 14.45 11.56
4/13/2022 10:30:00 AM 8.37 47.066 0.056 6.84 14.09 11.51
4/13/2022 10:45:00 AM 8.71 47.678 0.056 6.87 47.08 11.44
4/13/2022 11:00:00 AM 9.06 48.308 0.056 6.86 16.06 11.35
4/13/2022 11:15:00 AM 9.39 48.902 0.057 6.89 67.05 11.25
4/13/2022 11:30:00 AM 9.66 49.388 0.057 6.88 81.7 11.14
4/13/2022 11:45:00 AM 9.85 49.73 0.057 6.86 41.25 11.06
4/13/2022 12:00:00 PM 10.01 50.018 0.057 6.85 13.98 11.02
4/13/2022 12:15:00 PM 10.17 50.306 0.057 6.82 13.95 10.98
4/13/2022 12:30:00 PM 10.34 50.612 0.057 6.82 14.05 10.92
4/13/2022 12:45:00 PM 10.44 50.792 0.057 6.79 27.67 10.86
4/13/2022 1:00:00 PM 10.54 50.972 0.057 6.76 56.94 10.84
4/13/2022 1:15:00 PM 10.65 51.17 0.057 6.77 62.77 10.8
4/13/2022 1:30:00 PM 10.74 51.332 0.057 6.78 59.62 10.77
4/13/2022 1:45:00 PM 10.82 51.476 0.057 6.75 14.08 10.74
4/13/2022 2:00:00 PM 10.92 51.656 0.057 6.76 67.92 10.72
4/13/2022 2:15:00 PM 11 51.8 0.056 6.76 53.13 10.66
4/13/2022 2:30:00 PM 11.05 51.89 0.056 6.75 52.85 10.64
4/13/2022 2:45:00 PM 11.11 51.998 0.056 6.73 55.14 10.62
4/13/2022 3:00:00 PM 11.18 52.124 0.056 6.74 53.68 10.61
4/13/2022 3:15:00 PM 11.24 52.232 0.056 6.75 57.69 10.58
4/13/2022 3:30:00 PM 11.26 52.268 0.056 6.75 182.89 10.55
4/13/2022 3:45:00 PM 11.26 52.268 0.056 6.74 21.33 10.53
4/13/2022 4:00:00 PM 11.25 52.25 0.056 6.73 37.76 10.52
4/13/2022 4:15:00 PM 11.25 52.25 0.056 6.71 28.1 10.53
4/13/2022 4:30:00 PM 11.24 52.232 0.056 6.71 15.6 10.52
4/13/2022 4:45:00 PM 11.23 52.214 0.056 6.7 52.98 10.48
4/13/2022 5:00:00 PM 11.19 52.142 0.056 6.71 34.52 10.45
4/13/2022 5:15:00 PM 11.14 52.052 0.056 6.7 16.25 10.43
4/13/2022 5:30:00 PM 11.1 51.98 0.056 6.7 39.69 10.42
4/13/2022 5:45:00 PM 11.04 51.872 0.056 6.72 16.3 10.43
4/13/2022 6:00:00 PM 10.98 51.764 0.055 6.73 16.38 10.41
4/13/2022 6:15:00 PM 10.9 51.62 0.055 6.7 16.5 10.39
4/13/2022 6:30:00 PM 10.81 51.458 0.055 6.71 18.32 10.36
4/13/2022 6:45:00 PM 10.71 51.278 0.055 6.69 17.99 10.35
4/13/2022 7:00:00 PM 10.62 51.116 0.055 6.67 17.91 10.33
4/13/2022 7:15:00 PM 10.52 50.936 0.055 6.67 17.55 10.33
4/13/2022 7:30:00 PM 10.42 50.756 0.055 6.66 16.32 10.32
4/13/2022 7:45:00 PM 10.33 50.594 0.055 6.64 80.15 10.34
4/13/2022 8:00:00 PM 10.24 50.432 0.055 6.63 70.91 10.36
4/13/2022 8:15:00 PM 10.16 50.288 0.055 6.65 80.52 10.37
4/13/2022 8:30:00 PM 10.1 50.18 0.055 6.65 74.98 10.39
4/13/2022 8:45:00 PM 10.03 50.054 0.055 6.69 63.14 10.41
4/13/2022 9:00:00 PM 9.97 49.946 0.055 6.68 65.6 10.41
4/13/2022 9:15:00 PM 9.92 49.856 0.055 6.71 101.58 10.43
4/13/2022 9:30:00 PM 9.86 49.748 0.055 6.7 42.46 10.44
4/13/2022 9:45:00 PM 9.79 49.622 0.055 6.7 73.85 10.46
4/13/2022 10:00:00 PM 9.72 49.496 0.055 6.69 73.12 10.47
4/13/2022 10:15:00 PM 9.65 49.37 0.055 6.69 76.5 10.48
4/13/2022 10:30:00 PM 9.57 49.226 0.055 6.7 69 10.51
4/13/2022 10:45:00 PM 9.5 49.1 0.055 6.7 72.48 10.52
4/13/2022 11:00:00 PM 9.43 48.974 0.055 6.7 91.01 10.54
4/13/2022 11:15:00 PM 9.36 48.848 0.055 6.71 73.16 10.55
4/13/2022 11:30:00 PM 9.29 48.722 0.054 6.71 71.46 10.57
4/13/2022 11:45:00 PM 9.23 48.614 0.054 6.73 67.86 10.59
4/14/2022 12:00:00 AM 9.16 48.488 0.054 6.74 15.25 10.61
4/14/2022 12:15:00 AM 9.1 48.38 0.054 6.73 24.25 10.62
4/14/2022 12:30:00 AM 9.04 48.272 0.054 6.72 15.49 10.64
4/14/2022 12:45:00 AM 8.98 48.164 0.054 6.71 49.71 10.66
4/14/2022 1:00:00 AM 8.92 48.056 0.054 6.71 68.32 10.66
4/14/2022 1:15:00 AM 8.87 47.966 0.054 6.72 59.12 10.68
4/14/2022 1:30:00 AM 8.81 47.858 0.054 6.71 67.24 10.7
4/14/2022 1:45:00 AM 8.76 47.768 0.054 6.72 61.52 10.72
4/14/2022 2:00:00 AM 8.71 47.678 0.054 6.72 65.8 10.73
4/14/2022 2:15:00 AM 8.67 47.606 0.054 6.73 60.68 10.75
4/14/2022 2:30:00 AM 8.62 47.516 0.054 6.73 64.1 10.75
4/14/2022 2:45:00 AM 8.57 47.426 0.054 6.73 62.98 10.77
4/14/2022 3:00:00 AM 8.52 47.336 0.054 6.73 58.21 10.77
4/14/2022 3:15:00 AM 8.47 47.246 0.054 6.75 60.99 10.79
4/14/2022 3:30:00 AM 8.42 47.156 0.054 6.74 60.23 10.79
4/14/2022 3:45:00 AM 8.37 47.066 0.054 6.74 66.36 10.81
4/14/2022 4:00:00 AM 8.32 46.976 0.054 6.74 58.31 10.82
4/14/2022 4:15:00 AM 8.28 46.904 0.054 6.76 58.71 10.83
4/14/2022 4:30:00 AM 8.24 46.832 0.054 6.76 51.29 10.84
4/14/2022 4:45:00 AM 8.2 46.76 0.054 6.76 62.67 10.85
4/14/2022 5:00:00 AM 8.16 46.688 0.054 6.76 14.42 10.87
4/14/2022 5:15:00 AM 8.12 46.616 0.054 6.76 14.4 10.87
4/14/2022 5:30:00 AM 8.08 46.544 0.054 6.75 38.72 10.88
4/14/2022 5:45:00 AM 8.03 46.454 0.054 6.74 14.62 10.91
4/14/2022 6:00:00 AM 7.99 46.382 0.054 6.75 14.71 10.95
4/14/2022 6:15:00 AM 7.95 46.31 0.054 6.77 62.77 11
4/14/2022 6:30:00 AM 7.92 46.256 0.054 6.77 14.52 11.04
4/14/2022 6:45:00 AM 7.89 46.202 0.054 6.78 14.62 11.08
4/14/2022 7:00:00 AM 7.88 46.184 0.054 6.77 14.36 11.15
4/14/2022 7:15:00 AM 7.88 46.184 0.054 6.77 14.51 11.17
4/14/2022 7:30:00 AM 7.9 46.22 0.054 6.78 14.4 11.24
4/14/2022 7:45:00 AM 7.97 46.346 0.054 6.79 67.29 11.27
4/14/2022 8:00:00 AM 8.08 46.544 0.054 6.81 14.53 11.29
4/14/2022 8:15:00 AM 8.2 46.76 0.054 6.84 14.96 11.28
4/14/2022 8:30:00 AM 8.35 47.03 0.054 6.85 14.26 11.28
4/14/2022 8:45:00 AM 8.52 47.336 0.054 6.86 44.84 11.24
4/14/2022 9:00:00 AM 8.75 47.75 0.054 6.87 13.83 11.23
4/14/2022 9:15:00 AM 8.93 48.074 0.055 6.85 31.31 11.16
4/14/2022 9:30:00 AM 9.09 48.362 0.055 6.86 60.93 11.13
4/14/2022 9:45:00 AM 9.22 48.596 0.055 6.87 13.56 11.05
4/14/2022 10:00:00 AM 9.31 48.758 0.055 6.86 42.76 11.03
4/14/2022 10:15:00 AM 9.44 48.992 0.055 6.85 14.05 10.98
4/14/2022 10:30:00 AM 9.52 49.136 0.055 6.83 50.71 10.93
4/14/2022 10:45:00 AM 9.58 49.244 0.055 6.81 13.63 10.92
4/14/2022 11:00:00 AM 9.63 49.334 0.055 6.81 13.54 10.88
4/14/2022 11:15:00 AM 9.67 49.406 0.055 6.81 13.49 10.88
4/14/2022 11:30:00 AM 9.7 49.46 0.055 6.8 13.64 10.85
4/14/2022 11:45:00 AM 9.72 49.496 0.055 6.79 13.57 10.84
4/14/2022 12:00:00 PM 9.73 49.514 0.055 6.79 13.75 10.86
4/14/2022 12:15:00 PM 9.74 49.532 0.056 6.8 37.94 10.89
4/14/2022 12:30:00 PM 9.76 49.568 0.056 6.78 13.96 10.9
4/14/2022 12:45:00 PM 9.76 49.568 0.056 6.77 13.88 10.88
4/14/2022 1:00:00 PM 9.76 49.568 0.056 6.76 13.81 10.89
4/14/2022 1:15:00 PM 9.77 49.586 0.056 6.77 45.1 10.91
4/14/2022 1:30:00 PM 9.8 49.64 0.056 6.75 13.64 10.95
4/14/2022 1:45:00 PM 9.89 49.802 0.056 6.78 13.68 10.95
4/14/2022 2:00:00 PM 9.96 49.928 0.056 6.8 13.69 10.93
4/14/2022 2:15:00 PM 10.02 50.036 0.056 6.79 13.69 10.92
4/14/2022 2:30:00 PM 10.05 50.09 0.056 6.8 52.96 10.9
4/14/2022 2:45:00 PM 10.09 50.162 0.056 6.78 246.55 10.58
4/14/2022 3:00:00 PM 10.12 50.216 0.056 6.77 51.21 10.88
4/14/2022 3:15:00 PM 10.14 50.252 0.056 6.77 14.44 10.86
4/14/2022 3:30:00 PM 10.13 50.234 0.056 6.78 14.03 10.85
4/14/2022 3:45:00 PM 10.13 50.234 0.056 6.77 13.74 10.85
4/14/2022 4:00:00 PM 10.14 50.252 0.056 6.77 35.09 10.82
4/14/2022 4:15:00 PM 10.14 50.252 0.056 6.78 14.11 10.78
4/14/2022 4:30:00 PM 10.09 50.162 0.056 6.76 51.41 10.75
4/14/2022 4:45:00 PM 10 50 0.057 6.73 37.01 10.75
4/14/2022 5:00:00 PM 9.89 49.802 0.057 6.72 28.41 10.74
4/14/2022 5:15:00 PM 9.76 49.568 0.057 6.71 27.13 10.74
4/14/2022 5:30:00 PM 9.64 49.352 0.057 6.71 13.47 10.75
4/14/2022 5:45:00 PM 9.54 49.172 0.057 6.71 13.43 10.75
4/14/2022 6:00:00 PM 9.45 49.01 0.057 6.68 13.45 10.76
4/14/2022 6:15:00 PM 9.36 48.848 0.057 6.69 14.9 10.77
4/14/2022 6:30:00 PM 9.27 48.686 0.057 6.71 13.26 10.77
4/14/2022 6:45:00 PM 9.18 48.524 0.057 6.7 12.56 10.76
4/14/2022 7:00:00 PM 9.08 48.344 0.057 6.72 12.61 10.75
4/14/2022 7:15:00 PM 8.96 48.128 0.057 6.72 241.63 10.73
4/14/2022 7:30:00 PM 8.84 47.912 0.057 6.7 144.83 10.75
4/14/2022 7:45:00 PM 8.71 47.678 0.057 6.68 52.07 10.79
4/14/2022 8:00:00 PM 8.58 47.444 0.057 6.68 55.31 10.81
4/14/2022 8:15:00 PM 8.46 47.228 0.057 6.68 56.84 10.84
4/14/2022 8:30:00 PM 8.35 47.03 0.057 6.69 52.87 10.88
4/14/2022 8:45:00 PM 8.23 46.814 0.057 6.69 62.41 10.91
4/14/2022 9:00:00 PM 8.12 46.616 0.057 6.69 60.75 10.94
4/14/2022 9:15:00 PM 8.01 46.418 0.057 6.69 55.46 10.97
4/14/2022 9:30:00 PM 7.91 46.238 0.057 6.69 60.5 11
4/14/2022 9:45:00 PM 7.81 46.058 0.057 6.7 59.97 11.02
4/14/2022 10:00:00 PM 7.71 45.878 0.057 6.71 59.4 11.05
4/14/2022 10:15:00 PM 7.61 45.698 0.057 6.73 60.53 11.09
4/14/2022 10:30:00 PM 7.52 45.536 0.057 6.73 57.01 11.12
4/14/2022 10:45:00 PM 7.42 45.356 0.057 6.74 52.42 11.15
4/14/2022 11:00:00 PM 7.33 45.194 0.057 6.75 60.53 11.17
4/14/2022 11:15:00 PM 7.24 45.032 0.057 6.76 57.87 11.2
4/14/2022 11:30:00 PM 7.15 44.87 0.057 6.75 82.53 11.23
4/14/2022 11:45:00 PM 7.06 44.708 0.057 6.77 80.45 11.25
4/15/2022 12:00:00 AM 6.97 44.546 0.056 6.75 62.63 11.29
4/15/2022 12:15:00 AM 6.88 44.384 0.056 6.76 60.59 11.31
4/15/2022 12:30:00 AM 6.8 44.24 0.056 6.76 60.63 11.35
4/15/2022 12:45:00 AM 6.71 44.078 0.056 6.75 13.98 11.36
4/15/2022 1:00:00 AM 6.64 43.952 0.056 6.76 69.25 11.38
4/15/2022 1:15:00 AM 6.56 43.808 0.056 6.77 74.99 11.42
4/15/2022 1:30:00 AM 6.49 43.682 0.056 6.78 51.8 11.43
4/15/2022 1:45:00 AM 6.41 43.538 0.056 6.78 55.68 11.46
4/15/2022 2:00:00 AM 6.34 43.412 0.056 6.78 52.39 11.49
4/15/2022 2:15:00 AM 6.27 43.286 0.056 6.81 54.5 11.5
4/15/2022 2:30:00 AM 6.2 43.16 0.056 6.8 50.08 11.52
4/15/2022 2:45:00 AM 6.13 43.034 0.056 6.79 55.43 11.54
4/15/2022 3:00:00 AM 6.07 42.926 0.056 6.79 52.13 11.57
4/15/2022 3:15:00 AM 6 42.8 0.056 6.8 54.77 11.59
4/15/2022 3:30:00 AM 5.94 42.692 0.056 6.82 53.59 11.61
4/15/2022 3:45:00 AM 5.87 42.566 0.056 6.83 53.19 11.63
4/15/2022 4:00:00 AM 5.81 42.458 0.055 6.81 48.55 11.65
4/15/2022 4:15:00 AM 5.75 42.35 0.055 6.82 49 11.67
4/15/2022 4:30:00 AM 5.69 42.242 0.055 6.82 50.8 11.69
4/15/2022 4:45:00 AM 5.63 42.134 0.055 6.85 51.49 11.71
4/15/2022 5:00:00 AM 5.57 42.026 0.055 6.84 14.16 11.73
4/15/2022 5:15:00 AM 5.52 41.936 0.055 6.84 12.8 11.75
4/15/2022 5:30:00 AM 5.46 41.828 0.055 6.83 13.05 11.78
4/15/2022 5:45:00 AM 5.41 41.738 0.055 6.84 13.03 11.81
4/15/2022 6:00:00 AM 5.36 41.648 0.055 6.85 12.82 11.86
4/15/2022 6:15:00 AM 5.32 41.576 0.055 6.83 13.29 11.91
4/15/2022 6:30:00 AM 5.27 41.486 0.055 6.85 12.87 11.96
4/15/2022 6:45:00 AM 5.24 41.432 0.055 6.84 12.5 12.01
4/15/2022 7:00:00 AM 5.21 41.378 0.054 6.84 13.58 12.06
4/15/2022 7:15:00 AM 5.19 41.342 0.054 6.85 13.44 12.1
4/15/2022 7:30:00 AM 5.18 41.324 0.054 6.86 13.28 12.13
4/15/2022 7:45:00 AM 5.19 41.342 0.054 6.86 13.41 12.15
4/15/2022 8:00:00 AM 5.24 41.432 0.054 6.89 13.39 12.18
4/15/2022 8:15:00 AM 5.33 41.594 0.054 6.87 12.62 12.2
4/15/2022 8:30:00 AM 5.47 41.846 0.054 6.89 12.34 12.2
4/15/2022 8:45:00 AM 5.64 42.152 0.054 6.88 13.2 12.18
4/15/2022 9:00:00 AM 5.85 42.53 0.054 6.92 12.54 12.14
4/15/2022 9:15:00 AM 6.07 42.926 0.054 6.91 12.69 12.1
4/15/2022 9:30:00 AM 6.31 43.358 0.054 6.92 38.99 12.06
4/15/2022 9:45:00 AM 6.59 43.862 0.055 6.93 46.55 12
4/15/2022 10:00:00 AM 6.89 44.402 0.055 6.93 12.78 11.92
4/15/2022 10:15:00 AM 7.21 44.978 0.055 6.94 13.34 11.85
4/15/2022 10:30:00 AM 7.54 45.572 0.055 6.95 16.36 11.77
4/15/2022 10:45:00 AM 7.86 46.148 0.055 6.96 24.54 11.68
4/15/2022 11:00:00 AM 8.19 46.742 0.055 6.93 28.94 11.56
4/15/2022 11:15:00 AM 8.53 47.354 0.055 6.91 29.82 11.49
4/15/2022 11:30:00 AM 8.87 47.966 0.055 6.89 13.37 11.41
4/15/2022 11:45:00 AM 9.1 48.38 0.055 6.9 13.53 11.27
4/15/2022 12:00:00 PM 9.16 48.488 0.055 6.86 31.01 11.2
4/15/2022 12:15:00 PM 9.14 48.452 0.055 6.83 28.44 11.17
4/15/2022 12:30:00 PM 9.12 48.416 0.055 6.81 13.38 11.18
4/15/2022 12:45:00 PM 9.22 48.596 0.055 6.75 13.29 11.21
4/15/2022 1:00:00 PM 9.44 48.992 0.055 6.82 29.76 11.17
4/15/2022 1:15:00 PM 9.67 49.406 0.055 6.85 48.89 11.11
4/15/2022 1:30:00 PM 9.89 49.802 0.055 6.86 52.06 11.06
4/15/2022 1:45:00 PM 10.1 50.18 0.055 6.88 50.03 10.99
4/15/2022 2:00:00 PM 10.22 50.396 0.055 6.88 124.15 10.84
4/15/2022 2:15:00 PM 10.19 50.342 0.055 6.85 37.29 10.84
4/15/2022 2:30:00 PM 10.11 50.198 0.055 6.78 13.33 10.87
4/15/2022 2:45:00 PM 10.07 50.126 0.055 6.77 13.4 10.87
4/15/2022 3:00:00 PM 10 50 0.055 6.79 13.49 10.85
4/15/2022 3:15:00 PM 9.91 49.838 0.055 6.76 13.62 10.82
4/15/2022 3:30:00 PM 9.81 49.658 0.055 6.71 13.52 10.86
4/15/2022 3:45:00 PM 9.77 49.586 0.055 6.68 13.38 10.9
4/15/2022 4:00:00 PM 9.8 49.64 0.055 6.7 50.35 10.9
4/15/2022 4:15:00 PM 9.81 49.658 0.055 6.72 13.51 10.88
4/15/2022 4:30:00 PM 9.75 49.55 0.055 6.71 13.38 10.87
4/15/2022 4:45:00 PM 9.66 49.388 0.055 6.71 13.65 10.88
4/15/2022 5:00:00 PM 9.61 49.298 0.055 6.71 15.86 10.88
4/15/2022 5:15:00 PM 9.55 49.19 0.055 6.72 40.64 10.88
4/15/2022 5:30:00 PM 9.5 49.1 0.054 6.71 22.05 10.88
4/15/2022 5:45:00 PM 9.44 48.992 0.054 6.71 13.84 10.86
4/15/2022 6:00:00 PM 9.36 48.848 0.054 6.7 13.57 10.83
4/15/2022 6:15:00 PM 9.29 48.722 0.054 6.69 13.55 10.81
4/15/2022 6:30:00 PM 9.24 48.632 0.054 6.68 31.81 10.79
4/15/2022 6:45:00 PM 9.17 48.506 0.054 6.68 13.63 10.77
4/15/2022 7:00:00 PM 9.1 48.38 0.054 6.68 13.7 10.75
4/15/2022 7:15:00 PM 9.02 48.236 0.054 6.67 56.98 10.73
4/15/2022 7:30:00 PM 8.94 48.092 0.054 6.67 61.67 10.75
4/15/2022 7:45:00 PM 8.87 47.966 0.054 6.68 14.85 10.74
4/15/2022 8:00:00 PM 8.81 47.858 0.054 6.73 58.9 10.74
4/15/2022 8:15:00 PM 8.74 47.732 0.054 6.72 69.17 10.76
4/15/2022 8:30:00 PM 8.67 47.606 0.054 6.73 70.46 10.77
4/15/2022 8:45:00 PM 8.58 47.444 0.054 6.71 82.3 10.81
4/15/2022 9:00:00 PM 8.49 47.282 0.054 6.7 62.89 10.82
4/15/2022 9:15:00 PM 8.41 47.138 0.054 6.71 54.51 10.84
4/15/2022 9:30:00 PM 8.34 47.012 0.054 6.72 57.19 10.87
4/15/2022 9:45:00 PM 8.28 46.904 0.054 6.71 73.02 10.88
4/15/2022 10:00:00 PM 8.22 46.796 0.053 6.73 86.31 10.89
4/15/2022 10:15:00 PM 8.17 46.706 0.053 6.74 46.09 10.91
4/15/2022 10:30:00 PM 8.12 46.616 0.053 6.75 37.91 10.92
4/15/2022 10:45:00 PM 8.08 46.544 0.053 6.71 8.33 10.94
4/15/2022 11:00:00 PM 8.04 46.472 0.053 6.7 25.41 10.95
4/15/2022 11:15:00 PM 8 46.4 0.053 6.71 8.17 10.96
4/15/2022 11:30:00 PM 7.96 46.328 0.053 6.71 8.13 10.98
4/15/2022 11:45:00 PM 7.92 46.256 0.053 6.72 7.96 10.99
4/16/2022 12:00:00 AM 7.88 46.184 0.053 6.73 8.11 11
4/16/2022 12:15:00 AM 7.84 46.112 0.053 6.72 8.03 11
4/16/2022 12:30:00 AM 7.79 46.022 0.053 6.72 7.93 11.01
4/16/2022 12:45:00 AM 7.76 45.968 0.053 6.74 7.96 11.04
4/16/2022 1:00:00 AM 7.72 45.896 0.053 6.74 8.17 11.04
4/16/2022 1:15:00 AM 7.7 45.86 0.053 6.75 8.2 11.06
4/16/2022 1:30:00 AM 7.67 45.806 0.053 6.75 8.01 11.06
4/16/2022 1:45:00 AM 7.65 45.77 0.053 6.75 7.73 11.06
4/16/2022 2:00:00 AM 7.63 45.734 0.053 6.76 7.67 11.07
4/16/2022 2:15:00 AM 7.61 45.698 0.053 6.76 7.72 11.08
4/16/2022 2:30:00 AM 7.59 45.662 0.053 6.75 7.81 11.08
4/16/2022 2:45:00 AM 7.57 45.626 0.053 6.75 7.77 11.09
4/16/2022 3:00:00 AM 7.55 45.59 0.053 6.76 7.83 11.1
4/16/2022 3:15:00 AM 7.53 45.554 0.053 6.76 7.81 11.11
4/16/2022 3:30:00 AM 7.51 45.518 0.053 6.74 7.75 11.11
4/16/2022 3:45:00 AM 7.48 45.464 0.053 6.75 7.92 11.13
4/16/2022 4:00:00 AM 7.45 45.41 0.053 6.77 7.67 11.13
4/16/2022 4:15:00 AM 7.43 45.374 0.052 6.78 7.52 11.13
4/16/2022 4:30:00 AM 7.4 45.32 0.052 6.75 8.12 11.14
4/16/2022 4:45:00 AM 7.38 45.284 0.052 6.75 7.99 11.14
4/16/2022 5:00:00 AM 7.36 45.248 0.052 6.77 7.9 11.16
4/16/2022 5:15:00 AM 7.34 45.212 0.052 6.77 8 11.17
4/16/2022 5:30:00 AM 7.33 45.194 0.052 6.78 8.07 11.17
4/16/2022 5:45:00 AM 7.32 45.176 0.052 6.79 8.05 11.19
4/16/2022 6:00:00 AM 7.31 45.158 0.052 6.78 8.02 11.2
4/16/2022 6:15:00 AM 7.31 45.158 0.052 6.78 7.94 11.23
4/16/2022 6:30:00 AM 7.31 45.158 0.052 6.79 7.92 11.27
4/16/2022 6:45:00 AM 7.32 45.176 0.052 6.79 7.92 11.32
4/16/2022 7:00:00 AM 7.34 45.212 0.052 6.79 8.01 11.36
4/16/2022 7:15:00 AM 7.37 45.266 0.052 6.81 7.85 11.41
4/16/2022 7:30:00 AM 7.41 45.338 0.052 6.81 7.99 11.42
4/16/2022 7:45:00 AM 7.45 45.41 0.052 6.81 7.81 11.44
4/16/2022 8:00:00 AM 7.49 45.482 0.052 6.81 8.12 11.46
4/16/2022 8:15:00 AM 7.57 45.626 0.052 6.82 7.69 11.48
4/16/2022 8:30:00 AM 7.64 45.752 0.052 6.82 8.15 11.47
4/16/2022 8:45:00 AM 7.71 45.878 0.052 6.83 8.63 11.48
4/16/2022 9:00:00 AM 7.8 46.04 0.052 6.83 8.47 11.47
4/16/2022 9:15:00 AM 7.87 46.166 0.052 6.81 8.44 11.45
4/16/2022 9:30:00 AM 7.95 46.31 0.052 6.81 8.72 11.42
4/16/2022 9:45:00 AM 8 46.4 0.052 6.8 8.42 11.35
4/16/2022 10:00:00 AM 8.02 46.436 0.052 6.81 8.69 11.3
4/16/2022 10:15:00 AM 8.04 46.472 0.052 6.8 8.62 11.26
4/16/2022 10:30:00 AM 8.04 46.472 0.052 6.79 8.57 11.23
4/16/2022 10:45:00 AM 8.02 46.436 0.052 6.77 8.55 11.24
4/16/2022 11:00:00 AM 8.01 46.418 0.052 6.77 8.77 11.27
4/16/2022 11:15:00 AM 7.99 46.382 0.052 6.75 8.73 11.28
4/16/2022 11:30:00 AM 7.97 46.346 0.052 6.77 8.79 11.3
4/16/2022 11:45:00 AM 7.94 46.292 0.052 6.75 8.76 11.29
4/16/2022 12:00:00 PM 7.89 46.202 0.052 6.73 8.91 11.28
4/16/2022 12:15:00 PM 7.84 46.112 0.052 6.72 8.87 11.3
4/16/2022 12:30:00 PM 7.81 46.058 0.052 6.77 8.84 11.33
4/16/2022 12:45:00 PM 7.79 46.022 0.052 6.77 8.94 11.32
4/16/2022 1:00:00 PM 7.77 45.986 0.052 6.73 8.87 11.34
4/16/2022 1:15:00 PM 7.76 45.968 0.052 6.75 9.03 11.35
4/16/2022 1:30:00 PM 7.76 45.968 0.052 6.74 8.92 11.4
4/16/2022 1:45:00 PM 7.81 46.058 0.052 6.74 8.95 11.43
4/16/2022 2:00:00 PM 7.84 46.112 0.052 6.75 9.03 11.4
4/16/2022 2:15:00 PM 7.84 46.112 0.052 6.75 9.19 11.39
4/16/2022 2:30:00 PM 7.83 46.094 0.052 6.73 9.27 11.36
4/16/2022 2:45:00 PM 7.8 46.04 0.052 6.71 9.56 11.34
4/16/2022 3:00:00 PM 7.77 45.986 0.052 6.74 9.54 11.33
4/16/2022 3:15:00 PM 7.76 45.968 0.052 6.69 9.73 11.38
4/16/2022 3:30:00 PM 7.77 45.986 0.052 6.71 9.77 11.37
4/16/2022 3:45:00 PM 7.75 45.95 0.052 6.71 9.94 11.37
4/16/2022 4:00:00 PM 7.74 45.932 0.052 6.68 10.27 11.37
4/16/2022 4:15:00 PM 7.73 45.914 0.052 6.68 10.8 11.37
4/16/2022 4:30:00 PM 7.73 45.914 0.052 6.69 10.96 11.38
4/16/2022 4:45:00 PM 7.74 45.932 0.052 6.72 10.86 11.39
4/16/2022 5:00:00 PM 7.74 45.932 0.052 6.72 11.18 11.39
4/16/2022 5:15:00 PM 7.73 45.914 0.052 6.72 10.88 11.38
4/16/2022 5:30:00 PM 7.7 45.86 0.052 6.73 11.28 11.35
4/16/2022 5:45:00 PM 7.66 45.788 0.052 6.73 10.88 11.34
4/16/2022 6:00:00 PM 7.6 45.68 0.052 6.7 11.23 11.31
4/16/2022 6:15:00 PM 7.55 45.59 0.052 6.68 10.78 11.3
4/16/2022 6:30:00 PM 7.49 45.482 0.052 6.68 21.36 11.29
4/16/2022 6:45:00 PM 7.44 45.392 0.052 6.68 25.96 11.26
4/16/2022 7:00:00 PM 7.38 45.284 0.052 6.67 11.06 11.25
4/16/2022 7:15:00 PM 7.31 45.158 0.052 6.67 33.18 11.23
4/16/2022 7:30:00 PM 7.25 45.05 0.052 6.7 19.56 11.25
4/16/2022 7:45:00 PM 7.19 44.942 0.052 6.69 29.04 11.24
4/16/2022 8:00:00 PM 7.12 44.816 0.052 6.68 16.95 11.26
4/16/2022 8:15:00 PM 7.06 44.708 0.052 6.69 17.65 11.26
4/16/2022 8:30:00 PM 6.99 44.582 0.052 6.69 22.56 11.28
4/16/2022 8:45:00 PM 6.92 44.456 0.052 6.68 22.97 11.3
4/16/2022 9:00:00 PM 6.84 44.312 0.052 6.68 28.29 11.32
4/16/2022 9:15:00 PM 6.77 44.186 0.052 6.68 25.17 11.35
4/16/2022 9:30:00 PM 6.7 44.06 0.052 6.69 23.57 11.36
4/16/2022 9:45:00 PM 6.62 43.916 0.052 6.68 23.92 11.39
4/16/2022 10:00:00 PM 6.55 43.79 0.052 6.68 22.87 11.42
4/16/2022 10:15:00 PM 6.48 43.664 0.052 6.69 9.07 11.42
4/16/2022 10:30:00 PM 6.4 43.52 0.052 6.69 9.14 11.45
4/16/2022 10:45:00 PM 6.34 43.412 0.052 6.7 9.11 11.47
4/16/2022 11:00:00 PM 6.29 43.322 0.052 6.69 8.55 11.5
4/16/2022 11:15:00 PM 6.25 43.25 0.052 6.69 8.49 11.52
4/16/2022 11:30:00 PM 6.21 43.178 0.052 6.69 8.96 11.53
4/16/2022 11:45:00 PM 6.17 43.106 0.052 6.68 15.55 11.55
4/17/2022 12:00:00 AM 6.14 43.052 0.052 6.69 13.85 11.56
4/17/2022 12:15:00 AM 6.12 43.016 0.052 6.68 12.97 11.56
4/17/2022 12:30:00 AM 6.09 42.962 0.052 6.68 18.48 11.57
4/17/2022 12:45:00 AM 6.07 42.926 0.052 6.69 7.91 11.59
4/17/2022 1:00:00 AM 6.04 42.872 0.052 6.68 29.18 11.59
4/17/2022 1:15:00 AM 6.02 42.836 0.052 6.69 22.84 11.61
4/17/2022 1:30:00 AM 6 42.8 0.052 6.69 18.96 11.61
4/17/2022 1:45:00 AM 5.97 42.746 0.052 6.7 17.21 11.61
4/17/2022 2:00:00 AM 5.92 42.656 0.052 6.69 16.11 11.62
4/17/2022 2:15:00 AM 5.87 42.566 0.052 6.74 14.96 11.63
4/17/2022 2:30:00 AM 5.82 42.476 0.052 6.76 23.15 11.65
4/17/2022 2:45:00 AM 5.79 42.422 0.052 6.78 17.63 11.66
4/17/2022 3:00:00 AM 5.75 42.35 0.052 6.73 18.78 11.68
4/17/2022 3:15:00 AM 5.72 42.296 0.052 6.75 58.14 11.69
4/17/2022 3:30:00 AM 5.69 42.242 0.052 6.72 19.29 11.71
4/17/2022 3:45:00 AM 5.67 42.206 0.052 6.73 28.15 11.71
4/17/2022 4:00:00 AM 5.64 42.152 0.052 6.72 15.41 11.72
4/17/2022 4:15:00 AM 5.61 42.098 0.052 6.71 12.75 11.73
4/17/2022 4:30:00 AM 5.59 42.062 0.052 6.71 13.47 11.74
4/17/2022 4:45:00 AM 5.56 42.008 0.052 6.71 21.96 11.76
4/17/2022 5:00:00 AM 5.53 41.954 0.052 6.71 6.53 11.76
4/17/2022 5:15:00 AM 5.5 41.9 0.052 6.72 6.77 11.77
4/17/2022 5:30:00 AM 5.48 41.864 0.052 6.82 6.88 11.79
4/17/2022 5:45:00 AM 5.45 41.81 0.052 6.78 6.86 11.8
4/17/2022 6:00:00 AM 5.43 41.774 0.052 6.72 17.94 11.84
4/17/2022 6:15:00 AM 5.41 41.738 0.052 6.72 7.54 11.88
4/17/2022 6:30:00 AM 5.4 41.72 0.052 6.74 7.47 11.95
4/17/2022 6:45:00 AM 5.41 41.738 0.052 6.72 7.5 12.01
4/17/2022 7:00:00 AM 5.39 41.702 0.052 6.72 7.51 11.98
4/17/2022 7:15:00 AM 5.26 41.468 0.052 6.69 7.43 11.99
4/17/2022 7:30:00 AM 5.2 41.36 0.052 6.7 7.66 12.08
4/17/2022 7:45:00 AM 5.2 41.36 0.052 6.71 7.42 12.16
4/17/2022 8:00:00 AM 5.22 41.396 0.052 6.73 7.31 12.22
4/17/2022 8:15:00 AM 5.28 41.504 0.052 6.73 7.4 12.25
4/17/2022 8:30:00 AM 5.34 41.612 0.052 6.72 7.44 12.27
4/17/2022 8:45:00 AM 5.44 41.792 0.052 6.77 7.43 12.25
4/17/2022 9:00:00 AM 5.54 41.972 0.052 6.74 21.45 12.24
4/17/2022 9:15:00 AM 5.59 42.062 0.052 6.75 7.19 12.2
4/17/2022 9:30:00 AM 5.63 42.134 0.052 6.75 7.19 12.22
4/17/2022 9:45:00 AM 5.76 42.368 0.052 6.75 7.09 12.2
4/17/2022 10:00:00 AM 5.85 42.53 0.052 6.75 7.13 12.21
4/17/2022 10:15:00 AM 5.98 42.764 0.052 6.75 6.91 12.16
4/17/2022 10:30:00 AM 6.12 43.016 0.052 6.74 6.89 12.14
4/17/2022 10:45:00 AM 6.34 43.412 0.052 6.75 6.79 12.15
4/17/2022 11:00:00 AM 6.54 43.772 0.052 6.75 6.78 12.06
4/17/2022 11:15:00 AM 6.7 44.06 0.052 6.75 7.07 11.99
4/17/2022 11:30:00 AM 6.82 44.276 0.052 6.74 6.84 11.92
4/17/2022 11:45:00 AM 6.87 44.366 0.052 6.72 6.78 11.92
4/17/2022 12:00:00 PM 6.96 44.528 0.052 6.72 6.9 11.89
4/17/2022 12:15:00 PM 7.1 44.78 0.052 6.73 7.91 11.87
4/17/2022 12:30:00 PM 7.27 45.086 0.052 6.73 7.75 11.84
4/17/2022 12:45:00 PM 7.43 45.374 0.053 6.74 7.79 11.78
4/17/2022 1:00:00 PM 7.64 45.752 0.053 6.75 7.7 11.73
4/17/2022 1:15:00 PM 7.78 46.004 0.053 6.73 7.61 11.66
4/17/2022 1:30:00 PM 7.9 46.22 0.053 6.74 7.81 11.63
4/17/2022 1:45:00 PM 7.99 46.382 0.053 6.75 34.6 11.59
4/17/2022 2:00:00 PM 8.16 46.688 0.053 6.74 7.65 11.26
4/17/2022 2:15:00 PM 8.27 46.886 0.053 6.74 7.42 11.51
4/17/2022 2:30:00 PM 8.33 46.994 0.053 6.73 7.48 11.46
4/17/2022 2:45:00 PM 8.38 47.084 0.053 6.72 7.51 11.45
4/17/2022 3:00:00 PM 8.4 47.12 0.053 6.71 7.54 11.39
4/17/2022 3:15:00 PM 8.32 46.976 0.053 6.72 7.55 11.41
4/17/2022 3:30:00 PM 8.22 46.796 0.053 6.71 24.36 11.43
4/17/2022 3:45:00 PM 8.21 46.778 0.053 6.7 7.77 11.45
4/17/2022 4:00:00 PM 8.16 46.688 0.053 6.71 7.81 11.44
4/17/2022 4:15:00 PM 8.07 46.526 0.053 6.71 7.68 11.44
4/17/2022 4:30:00 PM 7.95 46.31 0.053 6.68 7.79 11.46
4/17/2022 4:45:00 PM 7.86 46.148 0.053 6.68 7.72 11.48
4/17/2022 5:00:00 PM 7.78 46.004 0.053 6.69 22.12 11.49
4/17/2022 5:15:00 PM 7.69 45.842 0.053 6.69 16.29 11.49
4/17/2022 5:30:00 PM 7.61 45.698 0.053 6.7 7.7 11.49
4/17/2022 5:45:00 PM 7.52 45.536 0.053 6.71 12.49 11.49
4/17/2022 6:00:00 PM 7.42 45.356 0.053 6.72 12.31 11.48
4/17/2022 6:15:00 PM 7.31 45.158 0.053 6.72 11.72 11.48
4/17/2022 6:30:00 PM 7.2 44.96 0.053 6.72 10.98 11.48
4/17/2022 6:45:00 PM 7.09 44.762 0.053 6.72 7.78 11.47
4/17/2022 7:00:00 PM 6.98 44.564 0.053 6.74 7.67 11.47
4/17/2022 7:15:00 PM 6.87 44.366 0.053 6.73 7.41 11.47
4/17/2022 7:30:00 PM 6.76 44.168 0.053 6.73 18.43 11.47
4/17/2022 7:45:00 PM 6.65 43.97 0.053 6.73 12.57 11.5
4/17/2022 8:00:00 PM 6.53 43.754 0.053 6.73 22.75 11.52
4/17/2022 8:15:00 PM 6.42 43.556 0.053 6.73 13.55 11.54
4/17/2022 8:30:00 PM 6.31 43.358 0.053 6.74 50.87 11.58
4/17/2022 8:45:00 PM 6.2 43.16 0.053 6.73 27.45 11.6
4/17/2022 9:00:00 PM 6.1 42.98 0.053 6.74 33.5 11.64
4/17/2022 9:15:00 PM 6.01 42.818 0.053 6.74 32.73 11.67
4/17/2022 9:30:00 PM 5.92 42.656 0.053 6.75 28.09 11.7
4/17/2022 9:45:00 PM 5.83 42.494 0.053 6.75 16.15 11.73
4/17/2022 10:00:00 PM 5.74 42.332 0.053 6.75 26.91 11.75
4/17/2022 10:15:00 PM 5.65 42.17 0.052 6.75 17.33 11.78
4/17/2022 10:30:00 PM 5.56 42.008 0.052 6.76 16.4 11.81
4/17/2022 10:45:00 PM 5.48 41.864 0.052 6.77 8.17 11.84
4/17/2022 11:00:00 PM 5.4 41.72 0.052 6.77 8.14 11.87
4/17/2022 11:15:00 PM 5.32 41.576 0.052 6.75 8.17 11.9
4/17/2022 11:30:00 PM 5.25 41.45 0.052 6.76 23.6 11.92
4/17/2022 11:45:00 PM 5.17 41.306 0.052 6.77 7.47 11.94
4/18/2022 12:00:00 AM 5.1 41.18 0.052 6.78 13.36 11.95
4/18/2022 12:15:00 AM 5.03 41.054 0.052 6.78 12.29 11.98
4/18/2022 12:30:00 AM 4.96 40.928 0.052 6.79 12.46 12
4/18/2022 12:45:00 AM 4.89 40.802 0.052 6.79 7.9 12.03
4/18/2022 1:00:00 AM 4.82 40.676 0.052 6.79 7.99 12.05
4/18/2022 1:15:00 AM 4.76 40.568 0.052 6.8 7.82 12.08
4/18/2022 1:30:00 AM 4.7 40.46 0.052 6.81 7.83 12.1
4/18/2022 1:45:00 AM 4.63 40.334 0.052 6.8 9.36 12.11
4/18/2022 2:00:00 AM 4.57 40.226 0.052 6.8 7.77 12.13
4/18/2022 2:15:00 AM 4.51 40.118 0.052 6.82 7.77 12.15
4/18/2022 2:30:00 AM 4.45 40.01 0.052 6.8 14.19 12.17
4/18/2022 2:45:00 AM 4.39 39.902 0.052 6.81 11.68 12.18
4/18/2022 3:00:00 AM 4.33 39.794 0.052 6.81 18.63 12.21
4/18/2022 3:15:00 AM 4.28 39.704 0.052 6.82 7.93 12.22
4/18/2022 3:30:00 AM 4.22 39.596 0.052 6.82 8.17 12.25
4/18/2022 3:45:00 AM 4.17 39.506 0.052 6.82 33.32 12.26
4/18/2022 4:00:00 AM 4.11 39.398 0.052 6.83 19.75 12.28
4/18/2022 4:15:00 AM 4.06 39.308 0.052 6.82 8.17 12.3
4/18/2022 4:30:00 AM 4 39.2 0.052 6.82 8.14 12.32
4/18/2022 4:45:00 AM 3.95 39.11 0.052 6.81 8.11 12.33
4/18/2022 5:00:00 AM 3.9 39.02 0.052 6.81 8.47 12.35
4/18/2022 5:15:00 AM 3.85 38.93 0.052 6.82 8.35 12.37
4/18/2022 5:30:00 AM 3.8 38.84 0.052 6.82 8.39 12.38
4/18/2022 5:45:00 AM 3.75 38.75 0.052 6.81 8.34 12.42
4/18/2022 6:00:00 AM 3.7 38.66 0.052 6.81 8.39 12.47
4/18/2022 6:15:00 AM 3.67 38.606 0.052 6.82 7.8 12.53
4/18/2022 6:30:00 AM 3.64 38.552 0.052 6.84 7.82 12.59
4/18/2022 6:45:00 AM 3.62 38.516 0.052 6.84 7.85 12.64
4/18/2022 7:00:00 AM 3.62 38.516 0.052 6.85 7.87 12.69
4/18/2022 7:15:00 AM 3.63 38.534 0.052 6.85 7.78 12.72
4/18/2022 7:30:00 AM 3.66 38.588 0.052 6.86 7.87 12.75
4/18/2022 7:45:00 AM 3.71 38.678 0.052 6.84 7.93 12.76
4/18/2022 8:00:00 AM 3.79 38.822 0.052 6.85 7.82 12.77
4/18/2022 8:15:00 AM 3.91 39.038 0.052 6.86 7.87 12.77
4/18/2022 8:30:00 AM 4.04 39.272 0.052 6.88 7.92 12.74
4/18/2022 8:45:00 AM 4.17 39.506 0.052 6.89 7.93 12.72
4/18/2022 9:00:00 AM 4.31 39.758 0.052 6.91 7.88 12.66
4/18/2022 9:15:00 AM 4.44 39.992 0.052 6.91 7.97 12.64
4/18/2022 9:30:00 AM 4.57 40.226 0.052 6.9 7.9 12.6
4/18/2022 9:45:00 AM 4.71 40.478 0.052 6.88 7.79 12.56
4/18/2022 10:00:00 AM 4.87 40.766 0.052 6.88 7.77 12.51
4/18/2022 10:15:00 AM 5.02 41.036 0.052 6.87 7.82 12.48
4/18/2022 10:30:00 AM 5.15 41.27 0.052 6.87 7.74 12.41
4/18/2022 10:45:00 AM 5.23 41.414 0.052 6.86 8.21 12.37
4/18/2022 11:00:00 AM 5.27 41.486 0.052 6.85 8.29 12.33
4/18/2022 11:15:00 AM 5.31 41.558 0.052 6.85 18.1 12.31
4/18/2022 11:30:00 AM 5.35 41.63 0.052 6.83 7.41 12.29
4/18/2022 11:45:00 AM 5.38 41.684 0.052 6.81 7.38 12.27
4/18/2022 12:00:00 PM 5.41 41.738 0.053 6.8 7.65 12.26
4/18/2022 12:15:00 PM 5.44 41.792 0.053 6.8 7.59 12.25
4/18/2022 12:30:00 PM 5.48 41.864 0.053 6.79 7.53 12.24
4/18/2022 12:45:00 PM 5.54 41.972 0.053 6.83 7.64 12.23
4/18/2022 1:00:00 PM 5.62 42.116 0.053 6.83 7.72 12.21
4/18/2022 1:15:00 PM 5.67 42.206 0.053 6.82 7.65 12.18
4/18/2022 1:30:00 PM 5.7 42.26 0.053 6.82 7.71 12.14
4/18/2022 1:45:00 PM 5.68 42.224 0.053 6.82 7.7 12.11
4/18/2022 2:00:00 PM 5.66 42.188 0.053 6.81 7.71 12.1
4/18/2022 2:15:00 PM 5.62 42.116 0.053 6.81 7.66 12.09
4/18/2022 2:30:00 PM 5.57 42.026 0.053 6.81 7.74 12.09
4/18/2022 2:45:00 PM 5.53 41.954 0.053 6.8 7.7 12.09
4/18/2022 3:00:00 PM 5.47 41.846 0.053 6.8 7.78 12.08
4/18/2022 3:15:00 PM 5.39 41.702 0.053 6.79 7.83 12.08
4/18/2022 3:30:00 PM 5.3 41.54 0.053 6.79 7.86 12.06
4/18/2022 3:45:00 PM 5.2 41.36 0.052 6.78 7.71 12.05
4/18/2022 4:00:00 PM 5.11 41.198 0.052 6.78 7.85 12.06
4/18/2022 4:15:00 PM 5 41 0.052 6.77 7.8 12.07
4/18/2022 4:30:00 PM 4.9 40.82 0.052 6.77 7.84 12.1
4/18/2022 4:45:00 PM 4.79 40.622 0.052 6.77 7.79 12.11
4/18/2022 5:00:00 PM 4.69 40.442 0.052 6.76 7 12.12
4/18/2022 5:15:00 PM 4.6 40.28 0.052 6.77 6.92 12.13
4/18/2022 5:30:00 PM 4.48 40.064 0.052 6.77 28.52 12.15
4/18/2022 5:45:00 PM 4.37 39.866 0.052 6.76 8.53 12.16
4/18/2022 6:00:00 PM 4.27 39.686 0.052 6.77 11.18 12.17
4/18/2022 6:15:00 PM 4.16 39.488 0.052 6.77 10.54 12.18
4/18/2022 6:30:00 PM 4.04 39.272 0.052 6.77 8.79 12.2
4/18/2022 6:45:00 PM 3.93 39.074 0.052 6.77 9.08 12.25
4/18/2022 7:00:00 PM 3.82 38.876 0.052 6.77 7.88 12.27
4/18/2022 7:15:00 PM 3.74 38.732 0.052 6.78 8.01 12.28
4/18/2022 7:30:00 PM 3.69 38.642 0.052 6.79 14.28 12.3
4/18/2022 7:45:00 PM 3.65 38.57 0.052 6.8 30.11 12.32
4/18/2022 8:00:00 PM 3.64 38.552 0.052 6.82 50.01 12.34
4/18/2022 8:15:00 PM 3.66 38.588 0.052 6.83 27.1 12.35
4/18/2022 8:30:00 PM 3.66 38.588 0.052 6.84 24.17 12.34
4/18/2022 8:45:00 PM 3.66 38.588 0.052 6.84 21.89 12.34
4/18/2022 9:00:00 PM 3.67 38.606 0.052 6.84 20.76 12.34
4/18/2022 9:15:00 PM 3.68 38.624 0.052 6.85 24.63 12.34
4/18/2022 9:30:00 PM 3.68 38.624 0.052 6.85 16.79 12.34
4/18/2022 9:45:00 PM 3.68 38.624 0.052 6.85 14.49 12.32
4/18/2022 10:00:00 PM 3.66 38.588 0.052 6.85 28.42 12.33
4/18/2022 10:15:00 PM 3.65 38.57 0.052 6.85 48.12 12.32
4/18/2022 10:30:00 PM 3.63 38.534 0.051 6.85 48.65 12.33
4/18/2022 10:45:00 PM 3.61 38.498 0.051 6.85 49.75 12.33
4/18/2022 11:00:00 PM 3.59 38.462 0.051 6.84 15.83 12.33
4/18/2022 11:15:00 PM 3.58 38.444 0.051 6.84 7.88 12.34
4/18/2022 11:30:00 PM 3.59 38.462 0.051 6.84 7.75 12.34
4/18/2022 11:45:00 PM 3.61 38.498 0.051 6.85 9.26 12.34
4/19/2022 12:00:00 AM 3.63 38.534 0.051 6.84 7.75 12.33
4/19/2022 12:15:00 AM 3.65 38.57 0.051 6.84 9.14 12.32
4/19/2022 12:30:00 AM 3.66 38.588 0.051 6.84 14.53 12.32
4/19/2022 12:45:00 AM 3.65 38.57 0.051 6.84 12.35 12.3
4/19/2022 1:00:00 AM 3.64 38.552 0.051 6.84 12.06 12.29
4/19/2022 1:15:00 AM 3.63 38.534 0.051 6.83 9.72 12.3
4/19/2022 1:30:00 AM 3.64 38.552 0.051 6.83 8.97 12.3
4/19/2022 1:45:00 AM 3.65 38.57 0.051 6.84 7.95 12.3
4/19/2022 2:00:00 AM 3.66 38.588 0.051 6.84 7.82 12.3
4/19/2022 2:15:00 AM 3.68 38.624 0.051 6.84 7.75 12.29
4/19/2022 2:30:00 AM 3.7 38.66 0.051 6.83 7.72 12.28
4/19/2022 2:45:00 AM 3.72 38.696 0.051 6.84 7.56 12.27
4/19/2022 3:00:00 AM 3.74 38.732 0.051 6.84 11.58 12.26
4/19/2022 3:15:00 AM 3.76 38.768 0.051 6.84 11.81 12.25
4/19/2022 3:30:00 AM 3.78 38.804 0.051 6.84 11.08 12.25
4/19/2022 3:45:00 AM 3.79 38.822 0.051 6.83 11.07 12.24
4/19/2022 4:00:00 AM 3.81 38.858 0.052 6.84 10.5 12.23
4/19/2022 4:15:00 AM 3.83 38.894 0.052 6.83 34.2 12.22
4/19/2022 4:30:00 AM 3.84 38.912 0.052 6.83 30.77 12.23
4/19/2022 4:45:00 AM 3.85 38.93 0.052 6.83 7.3 12.22
4/19/2022 5:00:00 AM 3.86 38.948 0.052 6.82 7.26 12.21
4/19/2022 5:15:00 AM 3.87 38.966 0.052 6.82 7.36 12.21
4/19/2022 5:30:00 AM 3.88 38.984 0.052 6.83 8.13 12.2
4/19/2022 5:45:00 AM 3.88 38.984 0.052 6.83 8.12 12.23
4/19/2022 6:00:00 AM 3.89 39.002 0.052 6.83 8.1 12.25
4/19/2022 6:15:00 AM 3.9 39.02 0.052 6.84 7.97 12.27
4/19/2022 6:30:00 AM 3.92 39.056 0.052 6.85 8.26 12.31
4/19/2022 6:45:00 AM 3.93 39.074 0.052 6.85 8.22 12.32
4/19/2022 7:00:00 AM 3.96 39.128 0.052 6.85 8.1 12.36
4/19/2022 7:15:00 AM 3.99 39.182 0.052 6.86 8.39 12.38
4/19/2022 7:30:00 AM 4.02 39.236 0.052 6.84 8.21 12.4
4/19/2022 7:45:00 AM 4.06 39.308 0.052 6.84 8.17 12.43
4/19/2022 8:00:00 AM 4.09 39.362 0.052 6.83 8.22 12.42
4/19/2022 8:15:00 AM 4.13 39.434 0.052 6.83 8.22 12.42
4/19/2022 8:30:00 AM 4.19 39.542 0.052 6.83 8.3 12.44
4/19/2022 8:45:00 AM 4.26 39.668 0.052 6.83 16.7 12.44
4/19/2022 9:00:00 AM 4.32 39.776 0.052 6.83 6.95 12.42
4/19/2022 9:15:00 AM 4.41 39.938 0.052 6.82 6.74 12.44
4/19/2022 9:30:00 AM 4.51 40.118 0.052 6.82 6.72 12.41
4/19/2022 9:45:00 AM 4.57 40.226 0.052 6.82 6.67 12.37
4/19/2022 10:00:00 AM 4.65 40.37 0.053 6.82 6.59 12.37
4/19/2022 10:15:00 AM 4.81 40.658 0.053 6.82 11.82 12.35
4/19/2022 10:30:00 AM 4.91 40.838 0.053 6.83 18.26 12.31
4/19/2022 10:45:00 AM 4.99 40.982 0.053 6.83 25.59 12.29
4/26/2022 7:45:00 AM -99999.99 -179968 -99999.99 -99999.99 -99999.99 -99999.99
4/26/2022 8:00:00 AM -99999.99 -179968 -99999.99 -99999.99 -99999.99 -99999.99
4/26/2022 8:15:00 AM -99999.99 -179968 -99999.99 -99999.99 -99999.99 -99999.99
4/26/2022 8:30:00 AM -99999.99 -179968 -99999.99 -99999.99 -99999.99 -99999.99
4/26/2022 8:45:00 AM -99999.99 -179968 -99999.99 -99999.99 -99999.99 -99999.99
4/26/2022 9:00:00 AM -99999.99 -179968 -99999.99 -99999.99 -99999.99 -99999.99
4/26/2022 9:15:00 AM -99999.99 -179968 -99999.99 -99999.99 -99999.99 -99999.99
4/26/2022 9:30:00 AM -99999.99 -179968 -99999.99 -99999.99 -99999.99 -99999.99
4/26/2022 9:45:00 AM -99999.99 -179968 -99999.99 -99999.99 -99999.99 -99999.99
4/26/2022 10:00:00 AM -99999.99 -179968 -99999.99 -99999.99 -99999.99 -99999.99
4/26/2022 10:15:00 AM -99999.99 -179968 -99999.99 -99999.99 -99999.99 -99999.99
4/26/2022 10:30:00 AM -99999.99 -179968 -99999.99 -99999.99 -99999.99 -99999.99
4/26/2022 12:00:00 PM -99999.99 -179968 -99999.99 -99999.99 -99999.99 -99999.99

These are provisional data and have not been subject to a quality assurance process, but rather are the raw data reported by the instrument.
H: value is above sensor operating range
L: value is below sensor operating range
Offline: station is not reporting data
NC: parameter is not collected at site

Data Availability & Limitations

Uncertainty and potential for error can be associated with environmental monitoring data. Provisional data have not been subject to a quality assurance process, but rather are the raw data reported by the instrument. Data users are cautioned to consider carefully the provisional nature of the information before using it for decisions that concern personal or public safety or the conduct of business that involves substantial monetary or operational consequences.

Approved data are currently available by request by emailing: srbc@srbc.net. Approved data have been subject to a quality assurance process to correct for equipment or fouling drift. Data recorded during equipment malfunctions have been removed.

View Historical Stations that have been discontinued.